Time;durP1;ratioP1;P1;durP2;ratioP2;P2;SDS_P1;SDS_P2;PMS_P1;PMS_P2;Temp;Humidity;BMP_temperature;BMP_pressure;BME280_temperature;BME280_humidity;BME280_pressure;Samples;Min_cycle;Max_cycle;Signal;HPM_P1;HPM_P2
2021/01/10 00:01:07;;;;;;;10.03;8.87;;;0.30;99.90;;;;;;5072725;28;20461;-73
2021/01/10 00:03:34;;;;;;;11.90;8.47;;;0.20;99.90;;;;;;5056052;28;20429;-72
2021/01/10 00:06:02;;;;;;;11.60;7.63;;;0.20;99.90;;;;;;5073285;28;20480;-72
2021/01/10 00:08:30;;;;;;;11.07;7.27;;;0.10;99.90;;;;;;5073800;28;20417;-73
2021/01/10 00:10:57;;;;;;;11.10;6.60;;;0.10;99.90;;;;;;5039436;28;20441;-73
2021/01/10 00:13:25;;;;;;;13.13;7.30;;;0.10;99.90;;;;;;5050231;28;20549;-73
2021/01/10 00:15:52;;;;;;;12.40;6.53;;;0.10;99.90;;;;;;5045255;28;20485;-72
2021/01/10 00:18:21;;;;;;;9.27;7.33;;;0.10;99.90;;;;;;5030275;28;20488;-73
2021/01/10 00:20:48;;;;;;;9.43;7.43;;;0.10;99.90;;;;;;5071470;28;20461;-73
2021/01/10 00:23:16;;;;;;;10.47;7.90;;;0.10;99.90;;;;;;5073468;28;20430;-73
2021/01/10 00:25:43;;;;;;;13.17;7.90;;;0.10;99.90;;;;;;5039144;28;20963;-72
2021/01/10 00:31:02;;;;;;;12.23;7.63;;;0.00;99.90;;;;;;5072286;28;20441;-73
2021/01/10 00:33:31;;;;;;;10.37;6.93;;;-0.10;99.90;;;;;;5063307;22;20521;-76
2021/01/10 00:35:59;;;;;;;11.40;7.47;;;-0.20;99.90;;;;;;5033430;28;20450;-73
2021/01/10 00:38:27;;;;;;;10.93;8.13;;;-0.20;99.90;;;;;;5038681;28;20423;-74
2021/01/10 00:40:54;;;;;;;11.23;7.87;;;-0.20;99.90;;;;;;5027430;28;20446;-73
2021/01/10 00:43:22;;;;;;;9.70;7.30;;;-0.20;99.90;;;;;;5022657;28;20443;-73
2021/01/10 00:45:49;;;;;;;9.47;6.87;;;-0.20;99.90;;;;;;5026440;28;20592;-74
2021/01/10 00:48:17;;;;;;;9.73;7.00;;;-0.10;99.90;;;;;;4997786;28;20935;-73
2021/01/10 00:50:45;;;;;;;14.50;7.87;;;-0.10;99.90;;;;;;4998504;28;20494;-74
2021/01/10 00:53:12;;;;;;;12.60;8.57;;;-0.10;99.90;;;;;;4996821;28;20428;-75
2021/01/10 00:55:42;;;;;;;10.30;7.10;;;-0.10;99.90;;;;;;4998075;28;20465;-74
2021/01/10 00:58:10;;;;;;;12.43;7.83;;;-0.10;99.90;;;;;;5014584;28;20507;-74
2021/01/10 01:00:40;;;;;;;12.27;7.40;;;-0.10;99.90;;;;;;4988472;28;20865;-73
2021/01/10 01:03:08;;;;;;;12.10;8.57;;;0.00;99.90;;;;;;4996217;28;20560;-74
2021/01/10 01:05:40;;;;;;;11.00;7.40;;;-0.10;99.90;;;;;;4996394;28;20440;-73
2021/01/10 01:08:10;;;;;;;12.77;8.43;;;0.00;99.90;;;;;;4996926;28;20444;-73
2021/01/10 01:10:46;;;;;;;15.27;8.57;;;0.00;99.90;;;;;;4996611;28;20435;-74
2021/01/10 01:13:13;;;;;;;13.70;8.10;;;0.00;99.90;;;;;;4996558;28;20476;-73
2021/01/10 01:15:41;;;;;;;12.43;8.60;;;0.00;99.90;;;;;;5013793;28;20454;-75
2021/01/10 01:18:09;;;;;;;14.83;8.20;;;0.00;99.90;;;;;;5013810;28;20482;-74
2021/01/10 01:20:36;;;;;;;13.43;9.20;;;0.00;99.90;;;;;;4996456;28;20459;-74
2021/01/10 01:23:04;;;;;;;11.50;8.30;;;0.00;99.90;;;;;;4996421;28;20486;-73
2021/01/10 01:25:46;;;;;;;13.20;8.17;;;0.00;99.90;;;;;;4996565;28;20434;-73
2021/01/10 01:28:18;;;;;;;13.80;8.20;;;-0.10;99.90;;;;;;5014588;28;20428;-76
2021/01/10 01:30:45;;;;;;;13.47;8.93;;;0.00;99.90;;;;;;4992226;28;20952;-74
2021/01/10 01:33:13;;;;;;;15.90;10.30;;;0.00;99.90;;;;;;4994569;28;20491;-74
2021/01/10 01:35:41;;;;;;;10.50;7.47;;;0.00;99.90;;;;;;4976796;28;20544;-75
2021/01/10 01:43:55;;;;;;;14.40;8.60;;;0.00;99.90;;;;;;4994559;28;20444;-73
2021/01/10 01:46:28;;;;;;;13.67;8.20;;;-0.10;99.90;;;;;;4970063;28;20534;-74
2021/01/10 01:48:57;;;;;;;10.17;9.10;;;0.00;99.90;;;;;;4996170;28;20531;-73
2021/01/10 01:51:25;;;;;;;10.67;8.20;;;0.00;99.90;;;;;;5013888;28;20523;-74
2021/01/10 01:53:53;;;;;;;13.57;9.20;;;0.00;99.90;;;;;;4996114;28;20516;-74
2021/01/10 01:56:27;;;;;;;9.40;7.03;;;0.00;99.90;;;;;;4995945;28;20428;-74
2021/01/10 01:59:20;;;;;;;7.80;7.00;;;0.00;99.90;;;;;;4996415;28;20446;-74
2021/01/10 02:01:48;;;;;;;12.80;9.20;;;0.00;99.90;;;;;;5005632;28;20468;-73
2021/01/10 02:04:23;;;;;;;11.97;8.67;;;0.00;99.90;;;;;;5013219;28;20438;-74
2021/01/10 02:07:00;;;;;;;12.30;8.30;;;0.00;99.90;;;;;;5019840;28;20813;-74
2021/01/10 02:09:28;;;;;;;12.90;8.27;;;-0.10;99.90;;;;;;5037406;28;20435;-74
2021/01/10 02:12:02;;;;;;;13.70;9.77;;;-0.10;99.90;;;;;;5037648;28;20529;-73
2021/01/10 02:14:38;;;;;;;11.77;7.57;;;-0.10;99.90;;;;;;5019854;28;20431;-72
2021/01/10 02:17:08;;;;;;;10.70;7.60;;;-0.10;99.90;;;;;;5018670;28;20827;-74
2021/01/10 02:19:43;;;;;;;10.30;7.60;;;-0.20;99.90;;;;;;5003105;28;20489;-73
2021/01/10 02:22:12;;;;;;;10.67;7.60;;;-0.20;99.90;;;;;;5037220;28;20991;-73
2021/01/10 02:24:40;;;;;;;12.83;8.43;;;-0.20;99.90;;;;;;5036023;28;20517;-75
2021/01/10 02:27:08;;;;;;;13.07;8.37;;;-0.30;99.90;;;;;;5019414;28;20999;-73
2021/01/10 02:29:38;;;;;;;9.17;7.20;;;-0.30;99.90;;;;;;5014105;28;20522;-73
2021/01/10 02:32:07;;;;;;;12.50;8.53;;;-0.40;99.90;;;;;;5007578;28;20538;-73
2021/01/10 02:34:37;;;;;;;14.23;8.80;;;-0.50;99.90;;;;;;5037187;28;20501;-74
2021/01/10 02:37:10;;;;;;;12.67;8.17;;;-0.60;99.90;;;;;;5008022;28;20443;-73
2021/01/10 02:42:52;;;;;;;10.60;8.00;;;-0.80;99.90;;;;;;5036991;28;20916;-75
2021/01/10 02:45:21;;;;;;;10.37;6.70;;;-0.80;99.90;;;;;;5036616;28;20427;-73
2021/01/10 02:47:49;;;;;;;12.53;8.40;;;-1.00;99.90;;;;;;5036369;28;20503;-73
2021/01/10 02:50:17;;;;;;;14.60;8.30;;;-1.10;99.90;;;;;;5036990;28;20470;-73
2021/01/10 02:52:47;;;;;;;12.93;9.70;;;-1.10;99.90;;;;;;5002729;28;20546;-73
2021/01/10 02:55:16;;;;;;;13.77;10.17;;;-1.20;99.90;;;;;;5018861;28;20950;-73
2021/01/10 02:57:46;;;;;;;11.53;6.60;;;-1.20;99.90;;;;;;5036398;28;20811;-73
2021/01/10 03:00:15;;;;;;;9.33;7.30;;;-1.30;99.90;;;;;;5018222;28;20451;-73
2021/01/10 03:02:46;;;;;;;13.60;8.30;;;-1.30;99.90;;;;;;5035850;28;20466;-72
2021/01/10 03:05:15;;;;;;;13.80;9.30;;;-1.30;99.90;;;;;;5034847;28;20446;-76
2021/01/10 03:07:44;;;;;;;14.37;8.40;;;-1.40;99.90;;;;;;5035140;28;20494;-76
2021/01/10 03:10:13;;;;;;;15.17;8.63;;;-1.40;99.90;;;;;;5035747;28;20427;-74
2021/01/10 03:12:41;;;;;;;11.47;9.10;;;-1.50;99.90;;;;;;5018351;28;20459;-76
2021/01/10 03:15:16;;;;;;;14.57;8.30;;;-1.50;99.90;;;;;;5017728;28;20424;-73
2021/01/10 03:17:46;;;;;;;11.20;8.23;;;-1.60;99.90;;;;;;5001237;28;20479;-72
2021/01/10 03:20:14;;;;;;;16.73;8.57;;;-1.60;99.90;;;;;;5001940;28;20435;-73
2021/01/10 03:22:44;;;;;;;14.73;9.30;;;-1.70;99.90;;;;;;5018273;28;20955;-74
2021/01/10 03:25:13;;;;;;;10.77;8.20;;;-1.80;99.90;;;;;;5035941;28;20845;-74
2021/01/10 03:27:41;;;;;;;13.33;8.20;;;-1.70;99.90;;;;;;5036369;28;20539;-75
2021/01/10 03:30:10;;;;;;;14.07;9.27;;;-1.70;99.90;;;;;;5035595;28;20462;-73
2021/01/10 03:32:38;;;;;;;13.33;9.50;;;-1.70;99.90;;;;;;5035020;28;20483;-74
2021/01/10 03:35:13;;;;;;;14.50;8.80;;;-1.60;99.90;;;;;;5001282;28;20469;-74
2021/01/10 03:37:41;;;;;;;12.97;9.20;;;-1.60;99.90;;;;;;5017950;28;21026;-73
2021/01/10 03:40:09;;;;;;;15.50;7.87;;;-1.60;99.90;;;;;;5017972;28;20438;-74
2021/01/10 03:42:36;;;;;;;16.00;9.17;;;-1.60;99.90;;;;;;5017710;28;20434;-73
2021/01/10 03:45:06;;;;;;;17.67;9.20;;;-1.60;99.90;;;;;;5001589;28;20466;-75
2021/01/10 03:47:34;;;;;;;14.40;9.43;;;-1.60;99.90;;;;;;5035139;28;20986;-73
2021/01/10 03:50:02;;;;;;;13.03;8.97;;;-1.60;99.90;;;;;;5017787;28;20440;-73
2021/01/10 03:52:30;;;;;;;9.90;8.20;;;-1.70;99.90;;;;;;5035781;28;20474;-74
2021/01/10 03:55:22;;;;;;;14.67;9.40;;;-1.70;99.90;;;;;;5035342;28;20830;-73
2021/01/10 03:57:50;;;;;;;13.07;9.30;;;-1.70;99.90;;;;;;5035536;28;20442;-75
2021/01/10 04:00:20;;;;;;;14.23;8.63;;;-1.70;99.90;;;;;;5034625;28;20450;-73
2021/01/10 04:02:47;;;;;;;16.63;9.83;;;-1.60;99.90;;;;;;5017252;28;20478;-73
2021/01/10 04:05:15;;;;;;;13.40;8.97;;;-1.50;99.90;;;;;;5017645;28;20423;-73
2021/01/10 04:07:43;;;;;;;12.80;8.80;;;-1.50;99.90;;;;;;5017993;28;20973;-75
2021/01/10 04:10:11;;;;;;;16.03;10.20;;;-1.50;99.90;;;;;;5035547;28;20554;-73
2021/01/10 04:12:38;;;;;;;11.50;7.87;;;-1.40;99.90;;;;;;5035822;28;20951;-73
2021/01/10 04:15:07;;;;;;;13.23;8.83;;;-1.30;99.90;;;;;;5036029;28;20458;-73
2021/01/10 04:17:35;;;;;;;16.90;9.70;;;-1.30;99.90;;;;;;5043994;28;20463;-74
2021/01/10 04:20:04;;;;;;;11.97;8.83;;;-1.30;99.90;;;;;;5048382;28;20537;-73
2021/01/10 04:22:32;;;;;;;12.73;8.27;;;-1.20;99.90;;;;;;5037744;28;21000;-72
2021/01/10 04:25:00;;;;;;;14.17;9.63;;;-1.20;99.90;;;;;;5027898;28;20419;-72
2021/01/10 04:27:27;;;;;;;11.83;7.83;;;-1.20;99.90;;;;;;5056736;28;20466;-73
2021/01/10 04:29:55;;;;;;;11.77;7.57;;;-1.20;99.90;;;;;;5036132;28;20439;-73
2021/01/10 04:32:23;;;;;;;14.70;9.40;;;-1.30;99.90;;;;;;5033764;28;20581;-73
2021/01/10 04:34:52;;;;;;;14.13;10.00;;;-1.30;99.90;;;;;;5034266;28;20475;-73
2021/01/10 04:37:19;;;;;;;13.17;8.43;;;-1.30;99.90;;;;;;5033226;28;20443;-74
2021/01/10 04:39:47;;;;;;;13.40;7.33;;;-1.40;99.90;;;;;;5034901;28;20435;-73
2021/01/10 04:42:15;;;;;;;13.30;8.47;;;-1.40;99.90;;;;;;5034634;28;20756;-76
2021/01/10 04:44:42;;;;;;;15.80;9.40;;;-1.40;99.90;;;;;;5034867;28;20420;-74
2021/01/10 04:47:10;;;;;;;11.47;6.43;;;-1.40;99.90;;;;;;5033293;28;20479;-74
2021/01/10 04:49:38;;;;;;;14.50;7.07;;;-1.40;99.90;;;;;;5034663;28;20438;-74
2021/01/10 04:52:07;;;;;;;11.00;7.27;;;-1.40;99.90;;;;;;5016930;28;20419;-73
2021/01/10 04:54:40;;;;;;;12.37;7.87;;;-1.40;99.90;;;;;;5033018;28;20430;-73
2021/01/10 04:57:11;;;;;;;11.87;8.17;;;-1.50;99.90;;;;;;5034378;28;20463;-74
2021/01/10 04:59:42;;;;;;;12.27;8.00;;;-1.50;99.90;;;;;;5016651;28;20522;-73
2021/01/10 05:02:11;;;;;;;13.67;8.90;;;-1.60;99.90;;;;;;5033148;28;20479;-73
2021/01/10 05:04:39;;;;;;;12.30;8.73;;;-1.60;99.90;;;;;;5034179;28;20419;-73
2021/01/10 05:07:13;;;;;;;10.90;7.53;;;-1.60;99.90;;;;;;5034318;28;20502;-73
2021/01/10 05:09:41;;;;;;;14.80;9.20;;;-1.60;99.90;;;;;;4999920;28;20489;-74
2021/01/10 05:12:09;;;;;;;14.73;8.57;;;-1.60;99.90;;;;;;5016302;28;20494;-75
2021/01/10 05:14:36;;;;;;;11.87;7.80;;;-1.60;99.90;;;;;;5034090;28;20439;-73
2021/01/10 05:17:04;;;;;;;13.70;8.53;;;-1.60;99.90;;;;;;5032691;28;20480;-72
2021/01/10 05:19:32;;;;;;;12.00;7.73;;;-1.60;99.90;;;;;;5016667;28;20440;-73
2021/01/10 05:22:05;;;;;;;11.57;8.00;;;-1.60;99.90;;;;;;5034372;28;20438;-73
2021/01/10 05:24:33;;;;;;;10.00;6.40;;;-1.60;99.90;;;;;;5033919;28;20431;-72
2021/01/10 05:27:01;;;;;;;10.70;7.93;;;-1.60;99.90;;;;;;5034587;28;20463;-73
2021/01/10 05:29:30;;;;;;;11.57;7.67;;;-1.60;99.90;;;;;;5017119;28;20912;-74
2021/01/10 05:31:58;;;;;;;11.97;8.07;;;-1.60;99.90;;;;;;5026410;28;20478;-73
2021/01/10 05:34:26;;;;;;;11.00;7.50;;;-1.50;99.90;;;;;;5041826;28;20482;-73
2021/01/10 05:36:56;;;;;;;9.50;7.13;;;-1.50;99.90;;;;;;5034368;28;20447;-73
2021/01/10 05:39:25;;;;;;;12.23;7.83;;;-1.50;99.90;;;;;;5015309;28;20788;-73
2021/01/10 05:41:56;;;;;;;13.67;8.73;;;-1.50;99.90;;;;;;5016538;28;20432;-72
2021/01/10 05:44:24;;;;;;;10.30;6.77;;;-1.50;99.90;;;;;;5034366;28;20439;-73
2021/01/10 05:47:01;;;;;;;16.37;8.27;;;-1.50;99.90;;;;;;5033342;28;20479;-72
2021/01/10 05:49:29;;;;;;;11.50;7.70;;;-1.50;99.90;;;;;;5033641;28;20435;-75
2021/01/10 05:52:06;;;;;;;11.73;7.50;;;-1.50;99.90;;;;;;5016155;28;20442;-72
2021/01/10 05:54:37;;;;;;;11.17;7.20;;;-1.50;99.90;;;;;;5015723;28;20791;-73
2021/01/10 05:57:07;;;;;;;14.00;9.10;;;-1.50;99.90;;;;;;5033859;28;20450;-72
2021/01/10 05:59:37;;;;;;;12.90;7.87;;;-1.60;99.90;;;;;;5033456;28;20446;-73
2021/01/10 06:02:06;;;;;;;10.83;6.87;;;-1.50;99.90;;;;;;5032528;28;20471;-75
2021/01/10 06:04:34;;;;;;;10.03;7.47;;;-1.50;99.90;;;;;;5033773;28;20463;-74
2021/01/10 06:07:04;;;;;;;12.20;7.73;;;-1.50;99.90;;;;;;5016210;28;20466;-74
2021/01/10 06:09:45;;;;;;;14.77;7.90;;;-1.50;99.90;;;;;;5034976;28;20461;-73
2021/01/10 06:12:23;;;;;;;11.70;8.43;;;-1.50;99.90;;;;;;5018882;28;20481;-73
2021/01/10 06:14:51;;;;;;;12.60;7.80;;;-1.50;99.90;;;;;;5025883;28;20445;-73
2021/01/10 06:17:19;;;;;;;11.37;7.60;;;-1.50;99.90;;;;;;5052199;28;20524;-73
2021/01/10 06:19:51;;;;;;;11.77;6.70;;;-1.50;99.90;;;;;;5035405;28;20914;-74
2021/01/10 06:22:19;;;;;;;9.30;6.70;;;-1.50;99.90;;;;;;5032910;28;20435;-73
2021/01/10 06:24:47;;;;;;;12.13;7.80;;;-1.50;99.90;;;;;;5034078;28;20436;-74
2021/01/10 06:27:25;;;;;;;9.90;6.80;;;-1.50;99.90;;;;;;5017325;28;20498;-76
2021/01/10 06:29:55;;;;;;;12.87;8.13;;;-1.50;99.90;;;;;;5033416;28;20442;-73
2021/01/10 06:32:25;;;;;;;10.90;6.90;;;-1.50;99.90;;;;;;5032663;28;20974;-73
2021/01/10 06:34:55;;;;;;;12.60;7.63;;;-1.40;99.90;;;;;;5033376;28;20858;-73
2021/01/10 06:37:25;;;;;;;9.87;7.50;;;-1.40;99.90;;;;;;5033550;28;20435;-73
2021/01/10 06:40:00;;;;;;;13.70;6.83;;;-1.40;99.90;;;;;;5033459;28;20940;-72
2021/01/10 06:42:37;;;;;;;9.60;6.63;;;-1.40;99.90;;;;;;5033728;28;20435;-73
2021/01/10 06:45:07;;;;;;;11.37;7.40;;;-1.40;99.90;;;;;;5016067;28;20576;-76
2021/01/10 06:47:34;;;;;;;16.37;8.20;;;-1.40;99.90;;;;;;4995960;28;20534;-75
2021/01/10 06:50:02;;;;;;;10.80;6.83;;;-1.40;99.90;;;;;;5014579;28;20436;-74
2021/01/10 06:52:31;;;;;;;13.67;8.10;;;-1.40;99.90;;;;;;5017865;28;20965;-74
2021/01/10 06:54:59;;;;;;;9.97;6.80;;;-1.40;99.90;;;;;;5000750;28;20433;-77
2021/01/10 06:57:52;;;;;;;12.17;7.60;;;-1.40;99.90;;;;;;5018614;28;20523;-73
2021/01/10 07:00:21;;;;;;;7.97;6.50;;;-1.40;99.90;;;;;;5020083;28;20444;-73
2021/01/10 07:03:09;;;;;;;13.47;7.63;;;-1.30;99.90;;;;;;5036608;28;20484;-73
2021/01/10 07:06:06;;;;;;;10.27;7.27;;;-1.30;99.90;;;;;;5004849;28;20446;-73
2021/01/10 07:08:35;;;;;;;12.57;7.07;;;-1.30;99.90;;;;;;5036414;28;20474;-73
2021/01/10 07:11:31;;;;;;;12.10;8.13;;;-1.30;99.90;;;;;;5002265;28;20435;-73
2021/01/10 07:14:28;;;;;;;11.30;7.43;;;-1.30;99.90;;;;;;5019087;28;20443;-75
2021/01/10 07:17:14;;;;;;;9.37;7.27;;;-1.30;99.90;;;;;;5014757;28;20557;-75
2021/01/10 07:19:44;;;;;;;11.57;7.50;;;-1.30;99.90;;;;;;5005272;28;20436;-72
2021/01/10 07:22:31;;;;;;;11.90;6.80;;;-1.30;99.90;;;;;;5048614;28;20536;-73
2021/01/10 07:25:35;;;;;;;14.97;8.87;;;-1.30;99.90;;;;;;5036775;28;20439;-73
2021/01/10 07:28:35;;;;;;;10.43;7.13;;;-1.30;99.90;;;;;;5036308;28;20458;-73
2021/01/10 07:31:18;;;;;;;11.33;7.17;;;-1.30;99.90;;;;;;5035110;28;20475;-73
2021/01/10 07:33:49;;;;;;;10.07;6.43;;;-1.20;99.90;;;;;;5018353;28;20996;-74
2021/01/10 07:36:17;;;;;;;8.70;6.50;;;-1.20;99.90;;;;;;5018532;28;20462;-73
2021/01/10 07:38:45;;;;;;;11.47;7.17;;;-1.20;99.90;;;;;;5036499;28;20447;-73
2021/01/10 07:41:27;;;;;;;11.40;7.43;;;-1.20;99.90;;;;;;5018380;28;20469;-72
2021/01/10 07:43:57;;;;;;;11.97;7.93;;;-1.20;99.90;;;;;;5018167;28;20434;-77
2021/01/10 07:47:02;;;;;;;10.80;7.00;;;-1.20;99.90;;;;;;5016838;28;20506;-73
2021/01/10 07:49:50;;;;;;;9.47;6.40;;;-1.10;99.90;;;;;;5036179;28;20610;-72
2021/01/10 07:52:38;;;;;;;11.80;8.60;;;-1.10;99.90;;;;;;5019923;28;20446;-74
2021/01/10 07:55:21;;;;;;;9.40;7.77;;;-1.00;99.90;;;;;;5036102;28;20447;-73
2021/01/10 07:57:50;;;;;;;12.50;7.40;;;-1.00;99.90;;;;;;5035838;28;21204;-77
2021/01/10 08:00:20;;;;;;;14.70;7.73;;;-1.00;99.90;;;;;;5018059;28;20486;-73
2021/01/10 08:02:49;;;;;;;11.53;7.73;;;-0.90;99.90;;;;;;5034442;28;20986;-72
2021/01/10 08:05:19;;;;;;;9.53;6.33;;;-0.90;99.90;;;;;;5001108;28;20560;-74
2021/01/10 08:07:51;;;;;;;15.00;7.50;;;-0.90;99.90;;;;;;5035477;28;20463;-73
2021/01/10 08:10:19;;;;;;;10.63;6.87;;;-0.90;99.90;;;;;;5017745;28;20465;-74
2021/01/10 08:12:47;;;;;;;10.30;6.17;;;-0.80;99.90;;;;;;5037340;28;20471;-73
2021/01/10 08:15:15;;;;;;;13.27;7.43;;;-0.80;99.90;;;;;;5035110;28;20437;-73
2021/01/10 08:18:06;;;;;;;7.97;6.40;;;-0.80;99.90;;;;;;5034908;28;20487;-73
2021/01/10 08:20:37;;;;;;;11.30;6.50;;;-0.80;99.90;;;;;;5035289;28;20439;-75
2021/01/10 08:23:06;;;;;;;13.07;8.40;;;-0.70;99.90;;;;;;5035374;28;20439;-76
2021/01/10 08:25:33;;;;;;;13.37;8.00;;;-0.70;99.90;;;;;;5017654;28;20462;-77
2021/01/10 08:28:02;;;;;;;12.37;7.43;;;-0.60;99.90;;;;;;5017774;28;20469;-73
2021/01/10 08:30:30;;;;;;;12.57;8.70;;;-0.60;99.90;;;;;;5035014;28;20438;-75
2021/01/10 08:35:51;;;;;;;13.77;7.70;;;-0.50;99.90;;;;;;5035287;28;20439;-73
2021/01/10 08:38:19;;;;;;;11.20;7.70;;;-0.40;99.90;;;;;;5035237;28;20420;-74
2021/01/10 08:40:57;;;;;;;13.20;6.80;;;-0.30;99.90;;;;;;5034842;28;20436;-74
2021/01/10 08:43:24;;;;;;;8.83;6.70;;;-0.10;99.90;;;;;;5035048;28;20451;-73
2021/01/10 08:45:52;;;;;;;13.60;7.77;;;-0.10;99.90;;;;;;5033998;28;20795;-74
2021/01/10 08:48:20;;;;;;;8.63;5.70;;;-0.10;99.90;;;;;;5017027;28;20503;-75
2021/01/10 08:51:03;;;;;;;7.90;5.77;;;-0.10;99.90;;;;;;5049365;28;20533;-74
2021/01/10 08:53:39;;;;;;;11.97;7.53;;;-0.10;99.90;;;;;;5020912;28;20442;-74
2021/01/10 08:56:14;;;;;;;10.97;7.47;;;-0.10;99.90;;;;;;5034698;28;20531;-74
2021/01/10 08:58:43;;;;;;;9.40;5.90;;;0.00;99.90;;;;;;5035922;28;20442;-74
2021/01/10 09:01:19;;;;;;;8.43;6.60;;;0.10;99.90;;;;;;5034060;28;20604;-76
2021/01/10 09:03:58;;;;;;;12.70;7.23;;;0.10;99.90;;;;;;5019922;28;20473;-74
2021/01/10 09:06:46;;;;;;;8.50;6.50;;;0.20;99.90;;;;;;5020756;28;20538;-79
2021/01/10 09:09:26;;;;;;;14.07;6.93;;;0.20;99.90;;;;;;5044837;28;20518;-74
2021/01/10 09:12:05;;;;;;;11.23;6.70;;;0.30;99.90;;;;;;5044764;28;20441;-73
2021/01/10 09:14:39;;;;;;;10.80;7.17;;;0.50;99.90;;;;;;5036679;28;20435;-77
2021/01/10 09:17:07;;;;;;;9.37;7.13;;;0.90;99.90;;;;;;5019231;28;20563;-74
2021/01/10 09:19:35;;;;;;;10.20;6.97;;;1.20;99.90;;;;;;5003816;28;20430;-74
2021/01/10 09:22:04;;;;;;;9.87;6.77;;;1.60;99.90;;;;;;5038329;28;20435;-73
2021/01/10 09:24:32;;;;;;;10.23;6.77;;;1.80;99.90;;;;;;5020436;28;20466;-73
2021/01/10 09:27:14;;;;;;;9.13;6.70;;;1.70;99.90;;;;;;5019451;28;20488;-74
2021/01/10 09:29:42;;;;;;;9.80;6.83;;;1.80;99.90;;;;;;5017951;28;20555;-75
2021/01/10 09:32:10;;;;;;;9.67;7.43;;;2.10;99.90;;;;;;5015906;28;20471;-75
2021/01/10 09:35:05;;;;;;;11.50;7.57;;;2.40;99.90;;;;;;5034075;28;20575;-76
2021/01/10 09:37:34;;;;;;;10.30;7.80;;;2.40;99.90;;;;;;5016068;28;20993;-72
2021/01/10 09:40:10;;;;;;;11.60;7.80;;;2.60;99.90;;;;;;5035046;28;20466;-72
2021/01/10 09:42:44;;;;;;;9.40;6.57;;;2.70;99.90;;;;;;5033950;28;20431;-73
2021/01/10 09:45:13;;;;;;;14.87;6.67;;;2.80;99.90;;;;;;5015066;28;20440;-75
2021/01/10 09:47:50;;;;;;;65.63;34.87;;;2.90;99.90;;;;;;5032715;28;20486;-74
2021/01/10 09:50:17;;;;;;;30.93;18.20;;;3.10;99.90;;;;;;5033776;28;20435;-72
2021/01/10 09:52:52;;;;;;;8.40;6.50;;;3.40;99.90;;;;;;5016840;28;20442;-73
2021/01/10 09:55:25;;;;;;;9.77;6.93;;;3.30;99.90;;;;;;5015644;28;20431;-72
2021/01/10 09:57:54;;;;;;;8.73;5.60;;;3.40;99.90;;;;;;5016427;28;20961;-72
2021/01/10 10:00:22;;;;;;;11.40;6.60;;;3.70;99.90;;;;;;5015485;28;20431;-72
2021/01/10 10:02:51;;;;;;;9.93;7.27;;;3.90;99.90;;;;;;4998918;28;20473;-70
2021/01/10 10:05:22;;;;;;;16.57;7.40;;;3.90;99.90;;;;;;5033595;28;20424;-70
2021/01/10 10:07:51;;;;;;;9.30;6.13;;;4.20;99.90;;;;;;5033270;28;20445;-71
2021/01/10 10:10:27;;;;;;;9.23;7.17;;;4.70;99.90;;;;;;5034024;28;20558;-72
2021/01/10 10:12:57;;;;;;;11.93;7.67;;;4.60;99.90;;;;;;5033474;28;20886;-71
2021/01/10 10:15:35;;;;;;;11.10;7.30;;;4.10;99.90;;;;;;5032847;28;20397;-70
2021/01/10 10:18:03;;;;;;;9.73;6.90;;;3.30;99.90;;;;;;5033731;28;20550;-73
2021/01/10 10:20:31;;;;;;;9.93;6.73;;;3.10;99.90;;;;;;5033193;28;20442;-71
2021/01/10 10:23:08;;;;;;;11.93;7.20;;;2.90;99.90;;;;;;5033839;28;20439;-71
2021/01/10 10:25:36;;;;;;;9.60;7.50;;;3.00;99.90;;;;;;5033757;28;20496;-70
2021/01/10 10:28:05;;;;;;;13.17;7.20;;;3.10;99.90;;;;;;5038361;28;20561;-70
2021/01/10 10:30:32;;;;;;;10.60;6.93;;;3.60;99.90;;;;;;5038245;28;20543;-72
2021/01/10 10:33:01;;;;;;;9.97;6.37;;;3.80;99.90;;;;;;5046173;28;20580;-72
2021/01/10 10:35:30;;;;;;;11.07;7.07;;;4.60;99.90;;;;;;5056048;28;20420;-72
2021/01/10 10:37:58;;;;;;;11.17;7.00;;;5.00;99.90;;;;;;5039419;28;20514;-71
2021/01/10 10:40:26;;;;;;;13.20;7.97;;;5.10;99.90;;;;;;5022199;28;20486;-71
2021/01/10 10:42:55;;;;;;;10.43;7.57;;;4.70;99.90;;;;;;5019867;28;20439;-70
2021/01/10 10:45:22;;;;;;;11.80;7.50;;;4.40;99.90;;;;;;5037250;28;20790;-70
2021/01/10 10:47:51;;;;;;;12.93;7.67;;;4.30;99.90;;;;;;5036816;28;20487;-71
2021/01/10 10:50:19;;;;;;;9.63;7.77;;;4.60;99.90;;;;;;5037510;28;20425;-71
2021/01/10 10:52:46;;;;;;;12.73;7.93;;;4.70;99.90;;;;;;5037638;28;20500;-71
2021/01/10 10:55:14;;;;;;;10.37;7.00;;;4.70;99.90;;;;;;5037694;28;20408;-71
2021/01/10 10:57:43;;;;;;;12.63;7.70;;;4.60;99.90;;;;;;5048142;28;20426;-71
2021/01/10 11:00:12;;;;;;;13.40;7.07;;;4.80;99.90;;;;;;5046142;28;20472;-72
2021/01/10 11:02:40;;;;;;;10.97;7.00;;;4.90;99.90;;;;;;5017774;28;20579;-71
2021/01/10 11:05:09;;;;;;;10.60;8.30;;;4.70;99.90;;;;;;5017493;28;20407;-71
2021/01/10 11:07:37;;;;;;;13.07;8.10;;;4.50;99.90;;;;;;5015548;28;20442;-71
2021/01/10 11:10:07;;;;;;;13.03;8.60;;;3.90;99.90;;;;;;4983614;28;20997;-71
2021/01/10 11:12:35;;;;;;;15.03;8.40;;;3.90;99.90;;;;;;5016955;28;20436;-71
2021/01/10 11:15:06;;;;;;;10.43;6.53;;;3.70;99.90;;;;;;5016426;28;20428;-70
2021/01/10 11:17:33;;;;;;;10.53;7.80;;;3.80;99.90;;;;;;5015897;28;20475;-71
2021/01/10 11:20:01;;;;;;;10.77;7.10;;;3.70;99.90;;;;;;5017059;28;20490;-71
2021/01/10 11:22:35;;;;;;;9.03;6.97;;;3.80;99.90;;;;;;5017082;28;20432;-71
2021/01/10 11:25:03;;;;;;;8.50;7.47;;;3.50;99.90;;;;;;5017687;28;20499;-70
2021/01/10 11:27:30;;;;;;;14.73;10.57;;;3.30;99.90;;;;;;5023879;28;20462;-70
2021/01/10 11:29:57;;;;;;;10.30;7.93;;;3.20;99.90;;;;;;5029797;28;20447;-70
2021/01/10 11:32:26;;;;;;;13.87;8.13;;;3.20;99.90;;;;;;5050937;28;20482;-71
2021/01/10 11:34:54;;;;;;;14.10;7.90;;;3.60;99.90;;;;;;5051824;28;20530;-70
2021/01/10 11:37:23;;;;;;;17.70;7.87;;;3.70;99.90;;;;;;5050851;28;20643;-69
2021/01/10 11:42:48;;;;;;;12.37;7.07;;;3.60;99.90;;;;;;5039257;28;20431;-70
2021/01/10 11:45:16;;;;;;;14.30;7.47;;;3.90;99.90;;;;;;5037700;28;20447;-72
2021/01/10 11:47:44;;;;;;;9.20;6.43;;;4.90;99.90;;;;;;5003396;28;20542;-70
2021/01/10 11:50:12;;;;;;;13.17;6.43;;;5.90;99.90;;;;;;5038576;28;20430;-73
2021/01/10 11:52:39;;;;;;;11.63;7.07;;;6.50;98.60;;;;;;5037945;28;20519;-73
2021/01/10 11:55:10;;;;;;;10.90;7.83;;;4.90;99.90;;;;;;5037942;28;20439;-70
2021/01/10 11:57:39;;;;;;;10.87;7.30;;;4.00;99.90;;;;;;5037651;28;20423;-70
2021/01/10 12:00:08;;;;;;;10.63;7.10;;;4.30;99.90;;;;;;5019456;28;20803;-69
2021/01/10 12:02:35;;;;;;;8.43;6.63;;;6.30;99.90;;;;;;5018583;28;20886;-71
2021/01/10 12:05:05;;;;;;;8.73;6.33;;;7.40;97.70;;;;;;5037676;28;20927;-73
2021/01/10 12:07:35;;;;;;;11.13;6.40;;;8.60;94.40;;;;;;5037337;28;20440;-70
2021/01/10 12:10:02;;;;;;;8.87;6.53;;;8.60;93.40;;;;;;5037459;28;20432;-70
2021/01/10 12:12:34;;;;;;;7.40;5.93;;;8.80;92.50;;;;;;5019357;28;20426;-70
2021/01/10 12:15:01;;;;;;;10.43;7.90;;;8.80;92.00;;;;;;5037942;28;20423;-69
2021/01/10 12:17:29;;;;;;;12.50;7.20;;;8.40;92.10;;;;;;5018465;28;20508;-73
2021/01/10 12:20:03;;;;;;;13.30;10.03;;;7.20;94.10;;;;;;5019589;28;20530;-71
2021/01/10 12:22:31;;;;;;;11.60;7.73;;;7.20;95.10;;;;;;5037094;28;20424;-74
2021/01/10 12:24:59;;;;;;;10.20;7.10;;;7.00;94.90;;;;;;5036394;28;20430;-70
2021/01/10 12:27:26;;;;;;;9.70;5.40;;;5.80;96.90;;;;;;5018252;28;20443;-70
2021/01/10 12:29:53;;;;;;;11.07;8.10;;;5.40;98.60;;;;;;5036048;28;20409;-70
2021/01/10 12:32:21;;;;;;;9.13;6.33;;;4.80;99.70;;;;;;5026873;28;20485;-71
2021/01/10 12:34:48;;;;;;;10.37;8.00;;;5.00;99.90;;;;;;5026699;28;20890;-70
2021/01/10 12:37:18;;;;;;;8.70;5.50;;;6.00;99.10;;;;;;5027538;28;20776;-70
2021/01/10 12:39:49;;;;;;;10.63;6.20;;;6.70;96.30;;;;;;5027562;28;20499;-70
2021/01/10 12:42:41;;;;;;;7.40;5.80;;;5.30;97.90;;;;;;5009419;28;20455;-69
2021/01/10 12:45:12;;;;;;;9.87;5.70;;;4.60;99.90;;;;;;5009644;28;20865;-70
2021/01/10 12:47:41;;;;;;;11.10;6.10;;;4.00;99.90;;;;;;5025456;28;20458;-68
2021/01/10 12:50:10;;;;;;;9.80;6.67;;;3.60;99.90;;;;;;5027782;28;20939;-70
2021/01/10 12:52:38;;;;;;;8.63;6.43;;;3.20;99.90;;;;;;5027571;28;20474;-70
2021/01/10 12:55:12;;;;;;;6.70;5.67;;;3.00;99.90;;;;;;5027339;28;20904;-69
2021/01/10 12:57:40;;;;;;;10.37;6.40;;;2.70;99.90;;;;;;5027674;28;20542;-70
2021/01/10 13:00:09;;;;;;;8.17;5.60;;;2.50;99.90;;;;;;5008313;28;20494;-71
2021/01/10 13:02:37;;;;;;;7.40;5.40;;;2.30;99.90;;;;;;5024959;28;20471;-70
2021/01/10 13:05:06;;;;;;;9.77;6.40;;;2.10;99.90;;;;;;5008461;28;21029;-69
2021/01/10 13:07:34;;;;;;;13.20;7.17;;;2.00;99.90;;;;;;5026442;28;20470;-70
2021/01/10 13:10:03;;;;;;;10.47;7.10;;;1.90;99.90;;;;;;5026390;28;20451;-69
2021/01/10 13:12:33;;;;;;;12.83;7.10;;;1.80;99.90;;;;;;5016279;28;20466;-70
2021/01/10 13:15:00;;;;;;;9.67;7.10;;;1.70;99.90;;;;;;5033713;28;20546;-70
2021/01/10 13:17:29;;;;;;;12.13;7.37;;;1.60;99.90;;;;;;4995254;28;20476;-70
2021/01/10 13:19:57;;;;;;;12.60;6.60;;;1.60;99.90;;;;;;4993779;28;20470;-70